Date,TemperatureHighF,TemperatureAvgF,TemperatureLowF,DewpointHighF,DewpointAvgF,DewpointLowF,HumidityHigh,HumidityAvg,HumidityLow,PressureMaxIn,PressureMinIn,WindSpeedMaxMPH,WindSpeedAvgMPH,GustSpeedMaxMPH,PrecipitationSumIn
2013-1-1,30.7,22.1,0.6,27.0,11.2,-3.0,92,65,37,29.87,29.59,7,2,16,0.00
2013-1-2,22.6,5.8,-6.7,8.0,-3.3,-10.0,88,68,47,30.07,29.85,8,2,19,0.00
2013-1-3,21.7,5.2,-9.3,6.0,-3.1,-13.0,86,71,40,30.11,29.94,6,1,14,0.00
2013-1-4,35.1,18.9,-2.5,25.0,12.7,-5.0,91,78,58,29.94,29.72,5,1,12,0.00
2013-1-5,33.8,27.1,10.9,26.0,15.5,8.0,87,64,41,30.25,29.73,10,2,20,0.00
2013-1-6,33.1,21.0,9.2,23.0,17.1,7.0,93,85,65,30.23,29.90,4,0,4,0.00
2013-1-7,31.0,20.8,4.4,23.0,14.3,2.0,96,78,39,30.39,29.94,4,1,10,0.00
2013-1-8,39.4,23.7,4.0,24.0,18.0,2.0,94,80,51,30.37,30.18,5,1,7,0.02
2013-1-9,30.8,21.0,8.9,27.0,18.5,7.0,95,90,81,30.42,29.89,3,1,5,0.00
2013-1-10,42.5,35.7,20.6,33.0,25.9,20.0,98,69,50,30.52,29.91,30,4,31,0.05
2013-1-11,36.0,27.6,16.7,31.0,22.2,15.0,96,81,52,30.52,30.25,4,1,6,0.01
2013-1-12,39.0,34.3,31.4,38.0,33.9,30.0,99,98,94,30.26,30.10,2,0,3,0.03
2013-1-13,39.1,35.3,33.0,39.0,35.1,33.0,99,99,98,30.15,29.93,2,0,5,0.00
2013-1-14,49.6,38.1,33.4,46.0,33.6,24.0,100,85,57,30.21,29.84,6,1,11,0.01
2013-1-15,37.4,31.2,24.8,28.0,24.9,21.0,94,78,58,30.31,30.22,3,0,8,0.00
2013-1-16,29.1,27.8,23.9,27.0,25.2,21.0,96,90,72,30.26,29.77,4,0,5,0.00
2013-1-17,39.4,21.7,13.2,34.0,14.0,-2.0,96,74,45,30.13,29.77,6,0,17,0.00
2013-1-18,17.1,9.4,2.2,3.0,-4.3,-15.0,86,57,31,30.39,30.11,8,1,15,0.00
2013-1-19,34.1,23.4,4.6,26.0,16.2,1.0,90,75,55,30.35,29.86,3,0,7,0.00
2013-1-20,43.5,31.9,19.9,31.0,21.3,10.0,95,68,38,29.85,29.44,9,2,15,0.13
2013-1-21,27.1,18.5,5.1,13.0,4.2,-3.0,87,57,29,30.03,29.84,3,0,10,0.00
2013-1-22,23.3,13.2,1.8,10.0,1.5,-8.0,81,60,43,30.03,29.78,6,1,11,0.00
2013-1-23,5.9,-1.6,-11.4,-10.0,-14.5,-19.0,81,57,35,30.10,30.02,8,1,13,0.00
2013-1-24,11.6,1.1,-11.5,-8.0,-12.3,-16.0,83,56,31,30.15,29.97,9,2,19,0.00
2013-1-25,18.9,10.6,1.0,4.0,-2.9,-9.0,71,56,32,30.22,30.07,10,1,16,0.00
2013-1-26,19.9,13.3,5.8,2.0,-2.9,-8.0,73,50,32,30.16,30.01,9,2,15,0.00
2013-1-27,24.4,14.4,4.8,2.0,-1.8,-8.0,72,50,32,30.43,30.14,9,2,17,0.00
2013-1-28,25.4,16.3,4.1,19.0,7.2,-5.0,93,71,27,30.43,30.08,2,0,6,0.00
2013-1-29,33.3,22.0,6.0,29.0,19.0,4.0,96,88,72,30.22,30.07,2,0,4,0.00
2013-1-30,36.7,34.1,30.2,36.0,33.7,29.0,99,98,96,30.15,29.42,4,0,4,0.05
2013-1-31,55.6,43.7,28.5,55.0,35.0,11.0,100,74,45,29.42,28.81,15,4,25,0.35
2013-2-1,28.5,22.7,13.9,14.0,5.7,1.0,61,48,37,30.02,29.43,8,2,14,0.00
2013-2-2,24.0,16.9,8.1,14.0,5.7,1.0,85,63,43,30.18,30.02,6,1,8,0.00
2013-2-3,28.6,21.7,13.2,14.0,12.6,10.0,91,69,49,30.05,29.71,7,1,11,0.00
2013-2-4,28.1,20.3,12.9,14.0,6.6,-2.0,90,58,34,29.86,29.65,12,1,18,0.00
2013-2-5,24.4,13.0,0.8,8.0,1.5,-4.0,86,63,29,30.03,29.86,3,0,8,0.00
2013-2-6,34.7,22.3,12.8,22.0,10.1,-7.0,82,61,33,30.27,29.92,6,1,12,0.00
2013-2-7,22.1,13.7,8.7,2.0,-6.1,-11.0,67,42,23,30.58,30.27,6,1,14,0.00
2013-2-8,12.5,10.3,6.6,10.0,4.6,-8.0,90,79,41,30.57,29.94,6,1,18,0.00
2013-2-9,17.7,14.2,10.0,14.0,9.8,6.0,92,83,64,30.14,29.77,16,5,23,0.00
2013-2-10,36.5,16.4,-2.8,14.0,3.5,-6.0,87,63,21,30.36,30.15,5,1,10,0.01
2013-2-11,27.3,16.3,0.4,27.0,14.0,-2.0,97,90,79,30.35,29.58,2,0,3,0.00
2013-2-12,41.7,31.9,22.7,37.0,28.3,22.0,97,87,64,29.77,29.54,5,0,9,0.07
2013-2-13,43.0,30.6,17.2,27.0,23.2,16.0,95,76,44,29.81,29.74,8,0,10,0.00
2013-2-14,41.9,30.1,20.1,25.0,21.8,17.0,91,74,42,29.99,29.71,8,1,12,0.00
2013-2-15,49.6,30.3,18.4,32.0,24.2,16.0,95,80,44,30.00,29.88,6,1,9,0.00
2013-2-16,35.6,30.8,25.3,32.0,24.9,7.0,97,80,46,29.94,29.78,7,1,14,0.06
2013-2-17,25.1,19.6,16.1,16.0,8.8,2.0,89,64,48,29.78,29.25,18,5,34,0.00
2013-2-18,30.9,19.6,11.8,7.0,2.0,-1.0,61,48,32,30.05,29.49,20,4,24,0.00
2013-2-19,39.0,26.5,7.7,35.0,14.7,1.0,98,65,23,30.11,29.57,9,1,10,0.50
2013-2-20,34.6,30.9,23.9,33.0,26.6,19.0,98,85,67,29.64,29.44,2,0,7,0.05
2013-2-21,26.9,23.8,17.3,20.0,14.1,8.0,81,67,54,30.17,29.64,7,2,20,0.00
2013-2-22,41.3,28.2,17.5,24.0,20.1,15.0,92,74,42,30.40,30.19,6,1,11,0.00
2013-2-23,33.9,29.7,23.1,32.0,26.8,20.0,97,89,79,30.35,30.02,5,1,8,0.02
2013-2-24,31.2,29.6,27.8,30.0,28.3,27.0,96,95,92,30.01,29.79,3,0,4,0.00
2013-2-25,43.2,32.1,24.6,33.0,28.6,24.0,98,88,57,30.24,29.91,3,0,5,0.44
2013-2-26,43.0,33.5,27.3,31.0,28.7,26.0,98,84,54,30.36,30.25,4,0,5,0.19
2013-2-27,34.8,30.9,25.7,33.0,29.7,25.0,97,95,89,30.24,29.70,5,1,10,0.13
2013-2-28,37.2,33.3,30.0,36.0,32.4,29.0,98,96,91,29.69,29.55,5,0,7,0.33
2013-3-1,37.2,33.0,30.2,31.0,29.7,28.0,97,88,74,29.67,29.55,5,0,11,0.09
2013-3-2,42.7,33.7,29.6,31.0,29.5,28.0,98,86,59,29.67,29.61,7,1,18,0.24
2013-3-3,42.2,34.7,30.1,33.0,29.3,26.0,97,82,63,29.63,29.54,5,1,10,0.18
2013-3-4,36.2,31.6,30.0,27.0,24.1,22.0,78,74,60,29.72,29.52,9,2,19,0.00
2013-3-5,43.5,36.1,30.4,35.0,30.1,23.0,96,79,65,30.12,29.72,8,1,12,0.01
2013-3-6,37.3,33.9,30.7,32.0,29.6,26.0,95,84,70,30.26,30.12,11,2,13,0.03
2013-3-7,35.0,32.4,30.6,26.0,24.3,23.0,82,72,63,30.22,30.11,11,2,15,0.00
2013-3-8,47.1,37.0,29.9,25.0,22.1,19.0,82,57,33,30.22,30.06,9,2,18,0.00
2013-3-9,51.4,36.1,24.8,27.0,22.6,19.0,93,62,30,30.38,30.20,3,0,10,0.00
2013-3-10,46.4,31.8,19.2,30.0,25.5,18.0,94,79,45,30.43,30.30,11,1,11,0.00
2013-3-11,45.9,36.9,32.6,36.0,32.2,30.0,96,84,57,30.30,30.13,6,2,9,0.00
2013-3-12,47.8,41.5,33.5,48.0,40.9,33.0,99,97,93,30.14,29.71,9,3,15,0.74
2013-3-13,47.0,38.7,28.6,47.0,35.3,27.0,99,88,65,29.74,29.67,5,0,7,0.00
2013-3-14,37.8,28.3,19.0,29.0,19.4,5.0,97,72,44,29.76,29.62,11,1,20,0.00
2013-3-15,36.5,24.6,15.5,22.0,10.6,4.0,88,57,30,29.80,29.59,9,2,14,0.00
2013-3-16,35.5,27.1,17.8,22.0,13.5,9.0,91,60,33,29.90,29.63,5,1,13,0.00
2013-3-17,30.1,21.5,11.2,15.0,6.9,1.0,91,57,29,30.31,29.89,14,2,21,0.00
2013-3-18,36.5,23.6,9.1,22.0,7.0,-1.0,78,53,23,30.44,30.27,3,1,8,0.00
2013-3-19,29.5,26.8,22.1,27.0,23.9,21.0,94,89,72,30.27,29.71,5,1,12,0.00
2013-3-20,36.8,26.7,13.0,28.0,21.4,11.0,95,82,50,29.71,29.61,5,0,12,0.18
2013-3-21,42.8,26.6,9.5,23.0,15.9,7.0,92,69,30,29.76,29.60,5,1,9,0.27
2013-3-22,41.7,27.4,12.2,22.0,16.8,10.0,95,68,35,29.66,29.59,6,1,13,0.00
2013-3-23,41.3,30.6,15.9,24.0,19.8,13.0,89,66,41,29.68,29.51,11,2,20,0.00
2013-3-24,45.9,35.3,26.5,27.0,24.3,23.0,90,66,42,29.79,29.67,11,2,16,0.00
2013-3-25,42.2,32.9,18.8,30.0,25.2,17.0,95,75,58,29.78,29.59,5,1,11,0.00
2013-3-26,48.6,37.9,27.2,27.0,24.1,21.0,87,60,35,29.74,29.59,10,2,16,0.00
2013-3-27,46.9,35.2,22.3,35.0,28.5,21.0,97,79,47,29.88,29.72,11,1,18,0.09
2013-3-28,49.3,37.1,30.3,38.0,32.9,29.0,99,86,49,29.98,29.88,4,0,9,0.01
2013-3-29,52.3,39.4,29.5,36.0,30.4,27.0,97,73,46,30.02,29.95,10,1,14,0.00
2013-3-30,53.9,37.5,25.9,32.0,23.5,14.0,96,66,22,30.09,29.98,5,1,14,0.00
2013-3-31,50.2,37.2,20.9,38.0,25.6,18.0,93,67,30,30.12,29.84,12,2,12,0.01
2013-4-1,53.5,40.0,30.1,43.0,36.5,19.0,97,88,59,29.83,29.45,7,1,13,0.49
2013-4-2,37.5,30.2,23.4,20.0,14.9,9.0,86,55,33,29.82,29.70,7,1,16,0.00
2013-4-3,43.3,33.9,27.9,19.0,12.7,8.0,69,43,26,30.07,29.80,10,2,17,0.00
2013-4-4,52.8,37.4,26.6,25.0,13.6,6.0,75,41,19,30.21,29.95,5,2,16,0.00
2013-4-5,56.6,42.8,31.2,28.0,24.0,20.0,76,50,25,29.94,29.65,16,2,17,0.00
2013-4-6,39.9,31.5,23.5,21.0,9.8,2.0,70,43,22,30.34,29.84,14,3,21,0.00
2013-4-7,46.7,37.4,21.9,36.0,25.6,15.0,85,64,43,30.33,29.94,11,2,18,0.00
2013-4-8,58.2,44.0,31.1,36.0,32.8,29.0,94,68,36,30.13,29.89,10,2,14,0.00
2013-4-9,46.1,39.1,34.6,43.0,37.4,31.0,98,94,85,30.12,29.90,5,0,6,0.28
2013-4-10,51.7,41.6,35.7,45.0,39.7,35.0,99,93,73,29.99,29.89,2,0,6,0.31
2013-4-11,49.4,42.1,37.1,40.0,28.3,14.0,99,64,26,30.19,29.87,9,1,14,0.03
2013-4-12,37.7,33.7,32.3,32.0,24.1,16.0,97,71,45,30.26,29.91,6,1,8,0.14
2013-4-13,44.7,36.9,31.5,38.0,34.4,31.0,97,91,75,29.91,29.81,5,0,8,0.12
2013-4-14,51.6,39.5,31.2,41.0,34.5,30.0,99,84,50,30.20,29.89,7,1,18,0.06
2013-4-15,55.6,39.8,26.4,39.0,32.4,25.0,98,78,39,30.41,30.20,8,1,16,0.00
2013-4-16,55.1,45.7,32.3,51.0,40.2,32.0,98,82,60,30.41,29.94,8,2,16,0.02
2013-4-17,59.9,49.6,33.1,52.0,33.4,25.0,94,58,28,30.35,29.95,13,3,19,0.00
2013-4-18,48.0,39.9,27.3,39.0,30.4,24.0,94,71,43,30.48,30.13,9,2,12,0.00
2013-4-19,73.4,57.0,47.6,59.0,50.6,36.0,97,80,56,30.13,29.57,12,3,18,0.00
2013-4-20,61.6,51.6,40.3,60.0,39.3,24.0,97,68,35,30.14,29.55,10,1,11,0.48
2013-4-21,51.6,39.2,28.6,28.0,21.1,14.0,78,51,25,30.71,30.15,8,2,15,0.00
2013-4-22,50.6,36.7,23.2,34.0,24.1,16.0,94,66,26,30.81,30.67,7,2,17,0.00
2013-4-23,43.8,35.6,25.0,40.0,32.8,24.0,96,89,77,30.66,30.23,4,1,8,0.00
2013-4-24,66.4,49.9,41.0,52.0,45.4,40.0,97,86,60,30.21,29.76,6,1,10,0.01
2013-4-25,60.9,51.0,33.7,50.0,35.6,28.0,97,61,29,30.30,29.74,7,1,14,0.01
2013-4-26,59.1,42.8,27.1,39.0,31.6,26.0,95,69,31,30.44,30.30,5,1,10,0.00
2013-4-27,62.6,46.4,30.2,42.0,35.4,29.0,98,70,33,30.42,30.28,4,1,10,0.00
2013-4-28,66.0,47.8,30.3,41.0,33.9,29.0,98,65,30,30.34,30.22,10,2,13,0.00
2013-4-29,63.1,48.4,33.1,45.0,38.0,32.0,95,71,39,30.27,30.17,7,2,11,0.00
2013-4-30,68.2,49.6,31.9,43.0,36.8,31.0,98,67,33,30.37,30.24,10,2,13,0.00
2013-5-1,71.5,51.3,30.2,43.0,34.6,28.0,94,60,23,30.45,30.37,9,2,12,0.00
2013-5-2,70.3,48.2,34.9,47.0,37.8,32.0,97,71,35,30.53,30.39,12,1,14,0.00
2013-5-3,68.8,48.7,30.0,49.0,39.7,29.0,98,75,41,30.56,30.36,6,1,8,0.00
2013-5-4,68.8,48.6,34.1,46.0,38.8,33.0,99,73,28,30.40,30.27,9,2,14,0.00
2013-5-5,65.0,47.1,30.1,44.0,36.8,29.0,98,72,38,30.34,30.22,9,2,12,0.00
2013-5-6,67.6,49.9,32.9,48.0,40.2,32.0,98,73,35,30.27,30.13,11,2,13,0.00
2013-5-7,74.5,56.5,39.6,54.0,48.0,38.0,98,77,40,30.17,30.05,11,2,19,0.00
2013-5-8,71.0,58.7,45.5,59.0,53.6,45.0,99,84,56,30.21,30.10,11,3,17,0.13
2013-5-9,62.2,57.0,53.9,59.0,55.9,53.0,98,96,88,30.09,29.87,4,0,11,0.31
2013-5-10,71.4,61.1,53.8,64.0,57.7,53.0,99,89,65,29.93,29.89,3,0,8,0.12
2013-5-11,65.7,58.9,52.6,63.0,57.4,52.0,98,95,86,29.90,29.65,5,1,10,0.45
2013-5-12,68.2,58.1,41.6,60.0,53.6,40.0,100,87,43,29.72,29.51,6,0,9,0.20
2013-5-13,56.5,47.3,36.7,40.0,31.6,27.0,96,58,34,30.01,29.72,7,1,13,0.00
2013-5-14,56.4,45.8,33.5,36.0,30.9,25.0,93,61,32,30.03,29.95,13,2,17,0.00
2013-5-15,62.4,46.6,30.3,49.0,36.6,25.0,96,74,30,30.02,29.66,12,2,22,0.15
2013-5-16,76.0,60.0,46.9,55.0,45.4,35.0,99,66,23,29.79,29.55,7,1,14,0.00
2013-5-17,64.5,53.9,41.9,44.0,40.1,35.0,92,63,35,30.20,29.79,12,2,14,0.00
2013-5-18,66.1,50.2,34.7,46.0,41.8,34.0,99,76,40,30.33,30.20,9,1,14,0.00
2013-5-19,63.3,51.7,43.8,53.0,48.0,42.0,97,88,63,30.37,30.21,6,1,7,0.13
2013-5-20,73.7,57.8,49.3,63.0,54.7,49.0,98,90,54,30.21,29.91,5,0,11,0.40
2013-5-21,56.0,52.5,50.1,56.0,51.8,49.0,99,97,94,30.12,29.94,7,1,9,0.53
2013-5-22,57.6,52.1,48.7,54.0,50.8,48.0,99,95,86,30.00,29.91,4,0,6,0.21
2013-5-23,65.9,58.0,49.5,65.0,56.8,49.0,98,96,88,29.94,29.77,5,1,8,0.08
2013-5-24,67.9,59.6,48.2,65.0,58.5,47.0,99,96,90,29.85,29.62,8,2,12,0.89
2013-5-25,49.0,46.9,44.4,48.0,45.8,44.0,98,96,90,29.84,29.68,10,2,15,1.02
2013-5-26,53.9,47.1,41.6,44.0,42.1,39.0,98,83,63,29.98,29.64,13,2,17,0.09
2013-5-27,67.2,50.6,32.7,43.0,36.8,32.0,99,66,28,30.16,29.98,9,1,17,0.00
2013-5-28,71.1,53.6,34.8,47.0,39.4,34.0,99,65,27,30.23,30.16,10,1,14,0.00
2013-5-29,56.5,52.0,44.4,55.0,51.0,42.0,99,96,89,30.19,29.98,2,0,2,0.10
2013-5-30,86.9,68.3,54.7,67.0,59.7,54.0,100,79,37,30.02,29.95,5,0,7,0.00
2013-5-31,91.2,72.7,54.1,71.0,62.6,53.0,99,75,42,30.04,29.86,3,0,7,0.00
2013-6-1,94.0,75.5,59.1,70.0,62.9,58.0,98,71,33,29.90,29.77,4,1,8,0.00
2013-6-2,88.8,72.9,63.6,71.0,66.3,63.0,98,82,49,29.79,29.60,8,1,17,0.19
2013-6-3,80.1,67.7,55.1,65.0,60.5,49.0,99,81,36,29.78,29.67,6,0,9,0.01
2013-6-4,65.8,56.3,45.1,52.0,44.5,41.0,97,67,43,30.05,29.77,11,1,18,0.00
2013-6-5,74.3,58.6,44.6,52.0,43.4,35.0,94,63,26,30.16,30.05,4,1,8,0.00
2013-6-6,69.9,57.9,44.9,53.0,47.9,42.0,96,73,37,30.21,30.13,6,1,8,0.00
2013-6-7,59.6,55.3,51.4,54.0,51.3,46.0,97,87,62,30.13,29.93,5,0,10,0.50
2013-6-8,72.4,59.8,52.1,62.0,56.6,51.0,98,90,69,29.97,29.69,9,1,12,0.52
2013-6-9,77.3,65.1,54.1,62.0,57.1,53.0,97,78,45,30.14,29.96,4,0,9,0.00
2013-6-10,68.8,60.1,48.4,60.0,54.6,48.0,98,83,53,30.20,30.03,4,0,5,0.00
2013-6-11,58.4,55.7,54.1,56.0,54.5,53.0,97,96,91,30.04,29.56,5,0,8,0.60
2013-6-12,60.5,57.0,53.5,57.0,55.0,53.0,99,93,85,29.77,29.53,7,1,17,0.17
2013-6-13,68.7,59.5,46.1,57.0,52.5,46.0,99,80,52,29.79,29.70,2,0,8,0.00
2013-6-14,78.3,62.6,53.5,62.0,54.1,46.0,97,77,33,29.74,29.64,7,0,12,0.01
2013-6-15,75.9,62.0,49.2,53.0,46.8,40.0,96,63,29,29.88,29.73,7,1,11,0.00
2013-6-16,74.1,61.6,45.7,61.0,53.4,45.0,97,77,47,29.89,29.69,5,1,12,0.00
2013-6-17,79.9,62.9,51.0,65.0,57.8,50.0,98,86,44,29.85,29.71,5,0,12,0.43
2013-6-18,63.5,57.7,50.6,58.0,54.9,50.0,100,91,71,29.97,29.84,2,0,4,0.04
2013-6-19,73.4,59.9,45.7,56.0,48.5,42.0,99,71,34,30.14,29.92,6,1,11,0.00
2013-6-20,77.9,61.4,43.1,53.0,47.5,41.0,97,66,30,30.24,30.14,4,0,7,0.00
2013-6-21,83.4,63.1,49.2,65.0,54.7,48.0,97,78,34,30.21,30.15,2,0,6,0.00
2013-6-22,81.2,66.4,54.6,70.0,62.0,54.0,98,87,49,30.20,30.09,4,0,4,0.08
2013-6-23,78.3,69.2,64.5,73.0,67.4,64.0,99,94,79,30.11,29.94,5,0,7,1.18
2013-6-24,89.3,74.0,62.4,74.0,68.6,62.0,100,85,50,29.95,29.80,3,0,8,0.00
2013-6-25,87.5,72.8,63.0,76.0,68.4,62.0,98,87,56,29.85,29.68,5,0,14,0.37
2013-6-26,76.2,68.4,60.8,72.0,66.8,60.0,100,95,80,29.86,29.68,6,1,12,0.42
2013-6-27,67.8,62.1,58.1,65.0,60.8,57.0,98,95,89,29.86,29.79,4,1,6,0.03
2013-6-28,63.3,60.7,58.1,63.0,60.3,57.0,99,98,96,29.82,29.53,4,0,8,1.20
2013-6-29,79.6,69.7,62.8,72.0,67.5,63.0,100,93,77,29.66,29.52,6,1,17,0.12
2013-6-30,81.6,71.1,60.4,73.0,67.5,60.0,100,89,66,29.89,29.65,7,1,10,0.86
2013-7-1,74.5,70.2,64.3,72.0,68.8,64.0,100,95,88,30.07,29.89,3,0,4,0.10
2013-7-2,70.3,62.1,57.8,70.0,61.4,57.0,99,97,95,30.22,30.05,3,0,8,0.26
2013-7-3,82.3,69.1,59.9,75.0,66.8,59.0,99,92,77,30.19,30.05,5,1,7,0.03
2013-7-4,88.6,75.9,64.2,79.0,71.0,64.0,100,86,64,30.15,30.02,5,1,8,0.00
2013-7-5,92.6,77.8,64.9,77.0,70.4,64.0,99,80,50,30.10,29.96,3,0,8,0.00
2013-7-6,87.4,75.6,65.5,75.0,70.3,64.0,99,85,57,30.01,29.91,2,0,6,0.00
2013-7-7,87.0,73.1,61.7,76.0,68.6,61.0,97,86,60,29.96,29.88,2,0,5,0.00
2013-7-8,71.4,69.5,66.7,71.0,67.9,64.0,99,94,84,30.06,29.87,4,0,7,0.33
2013-7-9,73.5,67.7,65.0,69.0,65.9,64.0,99,94,80,30.11,30.05,3,0,5,0.48
2013-7-10,66.8,66.2,65.0,67.0,65.7,64.0,99,98,95,29.93,29.75,3,0,6,0.55
2013-7-11,79.2,70.7,66.9,73.0,68.7,64.0,100,93,77,29.95,29.73,2,0,4,0.01
2013-7-12,80.3,67.8,58.1,68.0,61.0,57.0,98,80,52,30.20,29.96,5,0,9,0.00
2013-7-13,81.2,68.7,55.4,68.0,61.8,55.0,99,81,50,30.30,30.20,2,0,6,0.00
2013-7-14,88.8,74.2,60.8,76.0,68.3,60.0,98,84,54,30.27,30.15,4,0,5,0.00
2013-7-15,90.8,75.6,63.2,76.0,68.5,62.0,99,81,49,30.17,30.04,4,0,10,0.00
2013-7-16,89.1,76.7,64.8,77.0,70.3,64.0,97,82,51,30.14,30.08,5,0,10,0.00
2013-7-17,92.0,77.6,64.3,76.0,70.0,64.0,98,80,51,30.15,29.92,3,0,10,0.56
2013-7-18,85.6,74.8,66.6,75.0,70.4,66.0,100,87,60,29.99,29.91,3,0,8,0.06
2013-7-19,93.4,80.6,69.4,76.0,72.4,68.0,98,78,53,29.92,29.61,4,1,12,0.03
2013-7-20,87.8,76.8,64.2,72.0,68.8,63.0,97,78,49,29.77,29.55,5,1,9,0.17
2013-7-21,76.6,66.7,57.4,65.0,61.2,57.0,100,84,59,30.00,29.77,4,1,9,0.00
2013-7-22,73.5,66.1,60.6,67.0,63.5,60.0,98,91,79,30.03,29.91,4,0,6,0.01
2013-7-23,68.8,63.4,60.2,68.0,62.6,59.0,99,97,92,29.91,29.54,2,0,5,1.91
2013-7-24,79.5,67.3,57.6,71.0,61.9,50.0,100,84,58,29.97,29.55,5,1,14,0.12
2013-7-25,73.1,62.6,50.0,63.0,55.0,48.0,97,78,57,30.11,29.97,4,0,9,0.01
2013-7-26,72.2,66.0,61.1,65.0,62.6,60.0,97,89,77,30.09,29.90,7,1,15,0.03
2013-7-27,83.9,70.8,58.2,68.0,63.3,58.0,99,79,48,30.00,29.91,7,0,7,0.00
2013-7-28,72.9,67.0,59.9,68.0,64.6,59.0,99,92,82,30.02,29.99,4,1,9,0.00
2013-7-29,77.6,67.2,61.4,70.0,65.2,61.0,99,93,76,30.04,29.95,6,1,8,0.76
2013-7-30,79.4,67.5,56.3,65.0,60.2,55.0,99,80,45,30.06,29.99,5,0,12,0.00
2013-7-31,82.6,66.9,51.7,64.0,57.6,51.0,99,76,41,30.11,30.01,3,0,7,0.00
2013-8-1,76.6,66.8,56.6,66.0,61.8,56.0,99,85,60,30.02,29.86,8,2,15,0.04
2013-8-2,76.8,67.0,61.1,68.0,64.4,61.0,98,92,69,29.86,29.72,2,0,11,0.66
2013-8-3,78.1,65.1,56.9,66.0,60.7,56.0,99,87,55,29.81,29.71,3,0,7,0.07
2013-8-4,76.8,62.2,52.5,61.0,56.3,52.0,99,83,47,29.83,29.74,9,1,12,0.03
2013-8-5,72.8,59.7,47.8,54.0,50.7,46.0,97,75,42,30.02,29.83,6,1,13,0.00
2013-8-6,77.4,61.0,44.8,59.0,51.5,44.0,98,75,41,30.14,30.02,4,0,7,0.00
2013-8-7,74.7,62.7,48.5,64.0,56.3,48.0,99,81,61,30.18,30.09,7,1,11,0.00
2013-8-8,77.7,67.5,60.1,71.0,64.3,58.0,96,89,74,30.10,29.97,5,1,6,0.05
2013-8-9,72.5,68.4,64.6,71.0,67.8,64.0,99,98,93,29.99,29.71,4,1,8,3.53
2013-8-10,77.7,67.6,56.1,67.0,58.7,50.0,100,77,39,29.98,29.73,5,0,12,0.01
2013-8-11,78.6,62.7,47.9,62.0,54.2,47.0,99,77,42,30.04,29.95,2,0,6,0.00
2013-8-12,81.3,65.7,52.5,64.0,57.2,52.0,99,78,40,29.99,29.88,2,0,4,0.00
2013-8-13,73.0,64.0,56.5,68.0,62.4,56.0,99,94,74,29.89,29.67,3,0,6,0.82
2013-8-14,75.1,66.3,55.0,66.0,59.9,50.0,99,82,46,29.87,29.61,8,1,12,0.10
2013-8-15,77.7,61.1,47.8,60.0,52.6,47.0,99,77,39,30.06,29.87,3,0,6,0.00
2013-8-16,79.6,62.7,48.9,62.0,54.9,48.0,99,79,44,30.17,30.06,2,0,4,0.00
2013-8-17,82.3,64.9,52.5,65.0,56.6,52.0,99,78,40,30.25,30.17,4,0,12,0.00
2013-8-18,77.2,63.5,50.7,67.0,58.1,50.0,98,84,59,30.26,30.04,1,0,3,0.00
2013-8-19,82.5,66.8,54.0,69.0,60.7,53.0,99,83,50,30.04,29.88,5,0,6,0.00
2013-8-20,85.6,70.0,57.1,71.0,63.3,56.0,98,82,48,30.05,29.94,1,0,3,0.00
2013-8-21,89.4,71.4,58.6,70.0,64.1,58.0,98,81,46,30.11,29.96,3,0,5,0.00
2013-8-22,87.0,72.6,58.3,69.0,64.6,58.0,98,79,47,29.97,29.74,2,0,5,0.00
2013-8-23,77.0,68.6,59.4,67.0,55.6,49.0,92,66,37,30.13,29.76,9,1,12,0.00
2013-8-24,80.3,62.7,48.2,60.0,51.4,46.0,95,71,33,30.30,30.14,6,0,7,0.00
2013-8-25,81.0,62.8,45.9,61.0,53.8,45.0,98,76,36,30.35,30.12,3,0,6,0.00
2013-8-26,79.9,67.7,58.6,70.0,63.9,57.0,97,88,66,30.12,29.85,3,0,5,0.19
2013-8-27,85.8,70.5,59.5,72.0,64.9,59.0,99,84,52,29.88,29.82,0,0,0,0.00
2013-8-28,82.2,69.7,61.6,73.0,66.2,61.0,98,89,65,29.99,29.84,5,0,7,0.34
2013-8-29,65.5,64.0,61.3,65.0,62.2,60.0,99,94,85,30.10,29.97,2,0,8,0.03
2013-8-30,83.7,68.7,60.7,72.0,64.4,60.0,97,87,61,30.01,29.75,4,0,7,0.00
2013-8-31,80.1,71.2,65.4,72.0,68.7,65.0,99,92,72,29.80,29.74,2,0,5,0.51
2013-9-1,81.1,73.4,69.1,73.0,70.1,69.0,99,90,67,29.89,29.73,5,0,6,0.01
2013-9-2,70.9,67.1,63.9,70.0,66.7,63.0,99,98,96,29.87,29.71,5,1,9,3.16
2013-9-3,78.9,69.5,59.7,70.0,66.4,59.0,100,90,72,29.75,29.67,2,0,6,0.01
2013-9-4,80.2,65.8,54.7,63.0,58.3,53.0,100,80,41,29.88,29.73,5,0,7,0.11
2013-9-5,67.7,59.2,48.8,61.0,51.4,41.0,98,78,40,30.12,29.84,7,1,11,0.19
2013-9-6,71.6,53.7,39.9,53.0,44.6,38.0,99,76,39,30.22,30.03,4,0,7,0.00
2013-9-7,73.2,58.6,45.8,63.0,53.3,45.0,99,84,51,30.03,29.77,3,0,5,0.01
2013-9-8,63.7,56.8,42.4,59.0,50.5,41.0,99,82,47,30.06,29.70,15,1,18,0.11
2013-9-9,69.8,52.7,37.3,53.0,44.9,37.0,99,78,44,30.19,30.06,3,0,7,0.00
2013-9-10,66.5,59.1,47.4,64.0,57.3,47.0,98,93,83,30.09,30.01,2,0,3,0.01
2013-9-11,91.5,74.1,62.6,75.0,69.0,62.0,99,86,57,30.03,29.86,4,0,10,0.21
2013-9-12,74.4,69.0,66.6,72.0,68.1,66.0,99,97,90,29.96,29.63,5,0,13,0.80
2013-9-13,67.5,63.6,56.0,67.0,63.1,56.0,100,98,93,29.71,29.58,5,0,9,1.18
2013-9-14,66.6,57.8,47.5,57.0,53.9,47.0,100,88,63,30.02,29.71,5,1,10,0.00
2013-9-15,69.9,54.6,41.3,58.0,49.4,41.0,100,85,47,30.12,29.99,2,0,6,0.00
2013-9-16,62.9,54.4,41.7,57.0,49.0,36.0,99,83,56,30.26,29.96,9,1,15,0.04
2013-9-17,65.7,49.1,37.3,51.0,41.5,36.0,97,78,44,30.41,30.27,6,1,9,0.00
2013-9-18,74.2,52.6,37.6,58.0,45.9,37.0,100,82,36,30.30,30.09,3,0,4,0.00
2013-9-19,78.6,56.2,41.2,62.0,50.5,41.0,99,84,45,30.12,30.00,3,0,5,0.00
2013-9-20,77.7,57.4,43.7,60.0,51.5,43.0,100,84,44,30.10,30.00,3,0,6,0.00
2013-9-21,68.6,59.6,47.0,64.0,56.7,46.0,99,90,72,30.02,29.72,8,2,16,0.00
2013-9-22,72.9,63.8,50.7,65.0,57.8,44.0,97,82,49,29.75,29.56,8,2,13,0.61
2013-9-23,56.1,50.1,45.2,44.0,41.5,39.0,85,73,59,29.94,29.76,10,2,20,0.00
2013-9-24,56.8,50.3,45.0,45.0,42.7,40.0,91,76,58,29.92,29.82,7,1,12,0.00
2013-9-25,60.7,52.3,42.9,50.0,46.4,42.0,96,81,62,29.98,29.86,6,1,12,0.00
2013-9-26,65.5,54.7,42.4,54.0,48.7,42.0,98,81,59,30.14,29.99,7,1,9,0.00
2013-9-27,71.4,58.3,48.0,59.0,52.6,47.0,97,82,57,30.25,30.13,5,0,7,0.00
2013-9-28,73.4,55.0,42.9,57.0,49.3,42.0,99,84,44,30.34,30.25,3,0,7,0.00
2013-9-29,70.2,53.6,43.1,57.0,48.9,42.0,99,86,51,30.26,30.11,4,0,6,0.00
2013-9-30,69.7,52.6,41.9,57.0,48.9,41.0,99,89,58,30.12,29.97,3,0,4,0.00
2013-10-1,76.1,55.9,41.9,59.0,49.8,41.0,100,84,39,29.96,29.81,5,0,8,0.00
2013-10-2,79.1,58.6,46.3,61.0,53.6,46.0,98,86,49,29.89,29.74,2,0,9,0.00
2013-10-3,75.1,57.3,46.1,58.0,50.0,45.0,99,81,37,30.05,29.89,3,0,6,0.00
2013-10-4,71.1,55.2,42.0,60.0,51.0,41.0,99,87,51,30.09,30.01,1,0,5,0.00
2013-10-5,62.1,55.0,45.7,54.0,49.2,45.0,97,82,61,30.14,30.07,1,0,2,0.00
2013-10-6,53.1,50.0,44.9,50.0,43.2,38.0,98,79,62,30.28,30.14,4,0,7,0.15
2013-10-7,68.4,57.1,50.1,66.0,56.4,49.0,100,97,93,30.19,29.73,14,2,21,0.94
2013-10-8,61.5,50.9,37.2,58.0,44.4,36.0,100,81,45,30.39,29.81,6,1,16,0.01
2013-10-9,64.2,45.4,32.5,48.0,39.6,32.0,99,84,46,30.49,30.37,3,0,5,0.00
2013-10-10,66.5,47.6,34.0,53.0,43.3,33.0,99,87,54,30.36,30.19,3,0,4,0.00
2013-10-11,66.6,52.3,43.8,58.0,48.6,43.0,99,88,56,30.19,30.13,2,0,4,0.00
2013-10-12,56.7,50.8,42.8,53.0,48.7,42.0,99,92,85,30.42,30.18,2,0,4,0.00
2013-10-13,55.6,52.5,50.6,50.0,49.1,48.0,96,88,77,30.46,30.38,4,0,4,0.00
2013-10-14,65.6,53.6,40.2,53.0,48.0,39.0,98,82,58,30.38,30.21,5,1,8,0.00
2013-10-15,65.5,56.4,49.0,55.0,52.0,48.0,98,86,62,30.28,30.19,6,0,7,0.00
2013-10-16,61.9,54.6,48.0,53.0,50.7,46.0,98,88,58,30.19,29.89,5,0,8,0.00
2013-10-17,69.7,56.1,45.9,58.0,52.4,45.0,97,88,62,29.88,29.70,3,0,5,0.00
2013-10-18,68.0,55.1,44.8,57.0,50.3,43.0,99,86,48,29.82,29.58,3,0,10,0.31
2013-10-19,65.1,50.6,35.6,50.0,42.8,35.0,99,78,40,29.92,29.73,5,1,8,0.00
2013-10-20,61.2,51.9,39.7,49.0,40.8,31.0,95,69,35,29.95,29.64,6,1,12,0.00
2013-10-21,62.7,45.9,30.8,47.0,38.8,30.0,98,79,43,30.07,29.95,5,0,7,0.00
2013-10-22,56.9,50.5,36.8,52.0,46.5,36.0,96,86,76,29.95,29.69,5,1,9,0.01
2013-10-23,54.6,42.9,33.3,42.0,36.1,32.0,98,80,46,29.76,29.57,5,0,6,0.00
2013-10-24,50.3,39.7,29.0,37.0,31.6,26.0,96,76,44,29.82,29.61,5,1,14,0.00
2013-10-25,46.9,36.4,28.6,35.0,29.1,26.0,97,78,50,30.09,29.82,6,1,11,0.00
2013-10-26,48.3,39.0,26.2,36.0,30.7,25.0,96,74,50,30.10,29.85,6,1,8,0.00
2013-10-27,53.2,44.2,29.5,39.0,34.9,28.0,93,71,47,30.00,29.77,3,1,10,0.00
2013-10-28,53.1,38.3,28.0,38.0,30.1,24.0,96,75,50,30.35,30.00,18,2,20,0.00
2013-10-29,47.5,31.5,21.2,27.0,22.6,16.0,94,74,29,30.45,30.34,4,0,6,0.00
2013-10-30,49.2,33.6,24.3,31.0,26.3,21.0,94,78,38,30.35,30.17,3,0,6,0.00
2013-10-31,55.9,37.4,25.9,56.0,36.4,24.0,100,96,88,30.25,29.75,4,0,5,0.30
2013-11-1,66.4,60.6,50.6,62.0,56.0,44.0,100,86,57,29.74,29.31,8,2,18,0.55
2013-11-2,64.2,48.9,35.7,48.0,43.1,35.0,99,83,48,29.76,29.54,4,1,10,0.12
2013-11-3,42.8,36.9,27.3,41.0,26.7,20.0,93,68,44,30.43,29.77,11,2,14,0.00
2013-11-4,41.2,29.9,22.4,25.0,20.4,16.0,93,70,39,30.73,30.43,8,1,11,0.00
2013-11-5,47.1,32.5,20.4,33.0,26.7,19.0,95,81,50,30.73,30.49,5,1,10,0.00
2013-11-6,54.5,42.2,27.7,46.0,37.8,27.0,97,85,66,30.49,29.96,8,1,9,0.00
2013-11-7,55.9,49.4,38.6,54.0,44.5,28.0,96,83,64,29.96,29.63,10,1,15,0.03
2013-11-8,43.6,37.2,27.9,28.0,25.5,23.0,89,64,51,29.99,29.77,5,1,12,0.00
2013-11-9,43.5,37.5,33.4,32.0,24.1,21.0,94,60,41,30.12,30.00,6,1,12,0.00
2013-11-10,40.9,35.2,31.0,39.0,34.1,30.0,98,95,90,30.04,29.71,2,0,4,0.06
2013-11-11,45.5,37.7,31.3,35.0,30.5,27.0,99,77,50,30.02,29.75,7,1,12,0.00
2013-11-12,41.8,31.9,27.5,34.0,20.6,15.0,85,63,50,30.11,29.81,6,2,15,0.00
2013-11-13,33.4,25.9,19.6,20.0,14.5,10.0,85,64,42,30.24,30.07,8,2,14,0.00
2013-11-14,48.9,33.2,24.3,30.0,24.7,19.0,94,73,45,30.07,29.98,3,1,6,0.00
2013-11-15,48.1,31.8,23.6,35.0,27.8,22.0,95,86,55,30.18,30.07,3,0,4,0.00
2013-11-16,55.4,35.4,27.1,38.0,29.4,26.0,96,82,37,30.34,30.18,2,0,3,0.00
2013-11-17,42.7,37.1,26.5,43.0,36.5,25.0,99,98,94,30.36,29.92,2,0,4,0.13
2013-11-18,60.9,50.4,39.9,57.0,44.7,34.0,100,83,50,29.90,29.46,8,1,18,0.40
2013-11-19,43.3,35.6,30.0,36.0,21.5,16.0,85,57,44,30.22,29.55,11,3,21,0.00
2013-11-20,38.6,29.2,20.7,19.0,15.2,11.0,83,58,32,30.63,30.23,11,2,15,0.00
2013-11-21,46.0,29.1,17.3,24.0,19.0,14.0,92,70,27,30.64,30.34,2,1,4,0.00
2013-11-22,36.4,32.2,26.5,35.0,29.7,22.0,98,90,76,30.33,29.77,2,0,3,0.05
2013-11-23,39.8,32.5,24.4,36.0,24.2,16.0,98,74,43,29.82,29.68,6,1,13,0.00
2013-11-24,23.9,20.6,17.6,21.0,7.3,3.0,89,57,47,30.05,29.70,14,4,23,0.00
2013-11-25,27.9,21.6,14.1,13.0,5.1,1.0,69,50,34,30.30,30.05,9,1,17,0.00
2013-11-26,32.9,30.1,26.7,30.0,25.2,13.0,96,83,54,30.30,30.15,3,0,5,0.00
2013-11-27,55.2,42.6,31.5,55.0,42.0,31.0,99,97,90,30.13,29.18,13,1,17,1.53
2013-11-28,35.5,27.0,15.2,34.0,17.6,9.0,97,69,45,30.38,29.29,7,1,14,0.00
2013-11-29,25.1,17.6,10.4,13.0,9.6,6.0,93,73,44,30.75,30.38,8,1,16,0.00
2013-11-30,29.5,19.1,6.5,21.0,11.8,4.0,92,75,40,30.82,30.43,5,1,8,0.00
2013-12-1,32.6,30.9,28.7,32.0,28.3,21.0,97,90,71,30.42,30.08,2,0,5,0.01
2013-12-2,34.5,33.1,31.6,34.0,32.5,31.0,99,97,96,30.07,29.93,2,0,4,0.22
2013-12-3,44.3,33.6,26.6,40.0,32.8,26.0,99,96,74,29.93,29.85,3,0,8,0.15
2013-12-4,39.2,31.2,24.9,29.0,26.7,24.0,98,84,63,30.21,29.89,5,1,9,0.00
2013-12-5,32.9,29.9,23.0,33.0,28.9,22.0,99,96,89,30.26,29.90,1,0,3,0.14
2013-12-6,41.6,35.2,32.5,42.0,34.8,31.0,100,98,90,30.11,29.86,1,0,7,0.26
2013-12-7,36.0,30.5,20.4,31.0,20.4,10.0,97,68,46,30.41,30.07,7,1,15,0.00
2013-12-8,27.9,21.5,14.5,17.0,12.4,8.0,92,70,43,30.57,30.41,8,1,11,0.00
2013-12-9,24.8,23.2,22.2,23.0,18.0,12.0,94,81,62,30.53,29.84,3,0,6,0.00
2013-12-10,32.9,23.8,14.0,31.0,22.2,12.0,96,93,87,29.91,29.73,2,0,6,0.00
2013-12-11,29.7,18.4,6.0,19.0,12.9,4.0,95,81,53,30.12,29.90,8,1,11,0.00
2013-12-12,16.7,8.8,-0.8,12.0,1.3,-4.0,91,74,41,30.25,29.99,7,1,11,0.00
2013-12-13,24.5,13.5,2.9,12.0,2.8,-6.0,87,64,40,30.39,29.89,8,1,16,0.00
2013-12-14,14.2,6.8,-3.3,5.0,-4.9,-10.0,87,61,37,30.62,30.39,5,1,8,0.00
2013-12-15,19.8,13.1,7.4,17.0,10.8,5.0,92,90,85,30.38,29.46,2,0,5,0.00
2013-12-16,25.6,9.3,-3.0,12.0,0.3,-7.0,92,69,40,30.21,29.66,4,1,14,0.00
2013-12-17,12.7,2.8,-14.0,8.0,-4.1,-18.0,89,74,47,30.31,30.06,5,1,7,0.00
2013-12-18,32.6,19.0,6.6,21.0,14.5,4.0,92,83,59,30.05,29.85,5,1,11,0.03
2013-12-19,33.2,19.6,10.4,26.0,16.4,8.0,94,88,70,30.09,29.91,3,1,5,0.00
2013-12-20,34.1,27.3,16.3,31.0,25.4,15.0,96,92,81,30.12,29.91,1,0,3,0.00
2013-12-21,36.9,33.0,31.3,35.0,31.8,30.0,97,95,91,29.95,29.83,2,0,5,0.09
2013-12-22,32.9,28.6,25.3,32.0,27.7,24.0,97,96,94,30.09,29.88,4,1,8,0.40
2013-12-23,32.1,29.3,25.7,32.0,28.7,25.0,99,97,96,30.11,29.98,2,0,3,0.00
2013-12-24,31.8,23.5,11.1,32.0,22.1,8.0,99,94,86,30.19,30.05,0,0,0,0.00
2013-12-25,19.0,9.5,2.8,14.0,6.4,0.0,91,87,77,30.55,30.19,0,0,0,0.00
2013-12-26,20.5,14.0,4.7,19.0,12.2,2.0,94,92,90,30.51,30.09,0,0,0,0.00
2013-12-27,29.6,12.3,2.2,27.0,10.2,0.0,95,91,79,30.22,30.14,0,0,0,0.00
2013-12-28,35.9,20.6,5.5,32.0,18.9,3.0,98,93,82,30.17,29.93,1,0,4,0.00
2013-12-29,32.1,23.4,13.2,32.0,22.4,12.0,98,95,93,30.03,29.56,1,0,2,0.00
2013-12-30,33.5,18.2,-0.5,29.0,15.6,-3.0,97,89,75,30.17,29.53,0,0,0,0.01
2013-12-31,11.4,-1.9,-10.0,4.0,-6.1,-13.0,89,82,59,30.17,30.04,0,0,0,0.00
2014-1-1,21.2,0.0,-15.4,11.0,-4.4,-19.0,94,82,57,30.41,30.12,0,0,0,0.00
2014-1-2,4.7,-1.7,-6.7,2.0,-6.1,-11.0,90,81,75,30.44,30.02,0,0,0,0.00